Nearby METAR Reports

 

KHIF - Hill Afb/Ogden, Utah, USA
Distance from station: ENE 6mi, 9km
Updated: Wed, 21-Aug-2019 2:58am MDT
Clear
Clear
 Wind from ESE
Wind: ESE 17 mph , 28 km/h
Temperature: 68°F , 20°C
Dew Point: 28°F , -2°C
Humidity: 23%
Barometer: 30.05 inHg , 1017.6 hPa
Clouds: Clear
Visibility: 10 miles , 16 km
2019/08/21 08:58 KHIF 210858Z AUTO 11015KT 10SM CLR 20/M02 A3005 RMK AO2 SLP110 T01991019 50001
KOGD - Ogden, Utah, USA
Distance from station: NNE 9mi, 14km
Updated: Wed, 21-Aug-2019 2:53am MDT
Clear
Clear
 Wind from S
Wind: S 10 mph , 17 km/h
Temperature: 66°F , 19°C
Dew Point: 30°F , -1°C
Humidity: 26%
Barometer: 30.03 inHg , 1016.9 hPa
Clouds: Clear
Visibility: 10 miles , 16 km
2019/08/21 08:53 KOGD 210853Z AUTO 17009KT 10SM CLR 19/M01 A3003 RMK AO2 SLP102 T01891011 50004
 
KSLC - Salt Lake City, Utah, USA
Distance from station: SSE 21mi, 34km
Updated: Wed, 21-Aug-2019 2:54am MDT
Clear
Clear
 Wind from N
Wind: N 3 mph , 6 km/h
Temperature: 70°F , 21°C
Dew Point: 41°F , 5°C
Humidity: 35%
Barometer: 30.02 inHg , 1016.6 hPa
Clouds: Clear
Visibility: 10 miles , 16 km
2019/08/21 08:54 KSLC 210854Z 36003KT 10SM CLR 21/05 A3002 RMK AO2 SLP100 T02110050 53004
KLGU - Logan, Utah, USA
Distance from station: NNE 50mi, 80km
Updated: Wed, 21-Aug-2019 2:51am MDT
Clear
Clear
 Wind from NNE
Wind: NNE 3 mph , 6 km/h
Temperature: 52°F , 11°C
Dew Point: 41°F , 5°C
Humidity: 67%
Barometer: 30.06 inHg , 1017.9 hPa
Clouds: Clear
Visibility: 10 miles , 16 km
2019/08/21 08:51 KLGU 210851Z AUTO 02003KT 10SM CLR 11/05 A3006 RMK AO2 SLP126 T01110050 51004
 
K36U - Heber/Russ Mcdon, Utah, USA
Distance from station: SE 53mi, 85km
Updated: Wed, 11-Oct-2017 6:50pm MDT
NOT Current
Clear
Clear
 Wind from SSW
Wind: SSW 10 mph , 17 km/h, Gust: 18 mph , 30 km/h
Temperature: 63°F , 17°C
Dew Point: 16°F , -9°C
Humidity: 16%
Barometer: 29.87 inHg , 1011.5 hPa
Clouds: Clear
Visibility: 10 miles , 16 km
2017/10/12 00:50 K36U 120050Z AUTO 21009G16KT 10SM CLR 17/M09 A2987 RMK AO2
KEVW - Evanston, Wyoming, USA
Distance from station: ENE 55mi, 89km
Updated: Wed, 21-Aug-2019 2:53am MDT
Clear
Clear
 Wind from SE
Wind: SE 7 mph , 11 km/h
Temperature: 57°F , 14°C
Dew Point: 21°F , -6°C
Humidity: 25%
Barometer: 30.26 inHg , 1024.7 hPa
Clouds: Clear
Visibility: 10 miles , 16 km
2019/08/21 08:53 KEVW 210853Z AUTO 14006KT 10SM CLR 14/M06 A3026 RMK AO2 SLP139 T01441061 58002
 
KPVU - Provo Muni, Utah, USA
Distance from station: SSE 62mi, 100km
Updated: Wed, 21-Aug-2019 2:56am MDT
Clear
Clear
 Wind from SE
Wind: SE 3 mph , 6 km/h
Temperature: 63°F , 17°C
Dew Point: 41°F , 5°C
Humidity: 45%
Barometer: 30.07 inHg , 1018.3 hPa
Clouds: Clear
Visibility: 10 miles , 16 km
2019/08/21 08:56 KPVU 210856Z AUTO 14003KT 10SM CLR 17/05 A3007 RMK AO2 SLP121 T01720050 51006
KDPG - Dugway Prvg Grou, Utah, USA
Distance from station: SW 75mi, 121km
Updated: Tue, 20-Aug-2019 4:55pm MDT
NOT Current
Few Clouds
Few Clouds
 Wind from varies
Wind: varies 6 mph , 9 km/h
Temperature: 97°F , 36°C
Dew Point: 19°F , -7°C
Humidity: 6%
Barometer: 30.00 inHg , 1015.9 hPa
Clouds: Few Clouds
Visibility: 45 miles , 72 km
Cloud details: Few Clouds 15000 ft
2019/08/20 22:55 KDPG 202255Z VRB05KT 45SM FEW150 36/M07 A3000 RMK SLP109 T03621068 LAST
 
KENV - Wendover (aut), Utah, USA
Distance from station: WSW 105mi, 169km
Updated: Wed, 21-Aug-2019 2:56am MDT
Clear
Clear
 Wind from NNW
Wind: NNW 3 mph , 6 km/h
Temperature: 64°F , 18°C
Dew Point: 28°F , -2°C
Humidity: 26%
Barometer: 30.01 inHg , 1016.3 hPa
Clouds: Clear
Visibility: 10 miles , 16 km
2019/08/21 08:56 KENV 210856Z AUTO 33003KT 10SM CLR 18/M02 A3001 RMK AO2 SLP117 T01831017 50002
KPUC - Price, Utah, USA
Distance from station: SE 123mi, 197km
Updated: Wed, 21-Aug-2019 2:53am MDT
Clear
Clear
 Wind from NE
Wind: NE 6 mph , 9 km/h
Temperature: 66°F , 19°C
Dew Point: 25°F , -4°C
Humidity: 21%
Barometer: 30.14 inHg , 1020.7 hPa
Clouds: Clear
Visibility: 10 miles , 16 km
2019/08/21 08:53 KPUC 210853Z AUTO 05005KT 10SM CLR 19/M04 A3014 RMK AO2 SLP099 T01941044 58000
 
KPIH - Pocatello, Idaho, USA
Distance from station: NNW 130mi, 208km
Updated: Wed, 21-Aug-2019 2:53am MDT
Clear
Clear
 Wind from E
Wind: E 7 mph , 11 km/h
Temperature: 61°F , 16°C
Dew Point: 28°F , -2°C
Humidity: 29%
Barometer: 30.05 inHg , 1017.6 hPa
Clouds: Clear
Visibility: 10 miles , 16 km
2019/08/21 08:53 KPIH 210853Z AUTO 08006KT 10SM CLR 16/M02 A3005 RMK AO2 SLP120 T01561017 50003
KBYI - Burley, Idaho, USA
Distance from station: NW 134mi, 216km
Updated: Wed, 21-Aug-2019 2:53am MDT
Clear
Clear
 Wind from S
Wind: S 3 mph , 6 km/h
Temperature: 59°F , 15°C
Dew Point: 37°F , 3°C
Humidity: 45%
Barometer: 30.00 inHg , 1015.9 hPa
Clouds: Clear
Visibility: 10 miles , 16 km
2019/08/21 08:53 KBYI 210853Z AUTO 18003KT 10SM CLR 15/03 A3000 RMK AO2 SLP111 T01500028 51003
 
KVEL - Vernal, Utah, USA
Distance from station: ESE 140mi, 226km
Updated: Wed, 21-Aug-2019 2:53am MDT
Clear
Clear
 Wind from WNW
Wind: WNW 5 mph , 7 km/h
Temperature: 61°F , 16°C
Dew Point: 30°F , -1°C
Humidity: 31%
Barometer: 30.11 inHg , 1019.6 hPa
Clouds: Clear
Visibility: 10 miles , 16 km
2019/08/21 08:53 KVEL 210853Z AUTO 29004KT 10SM CLR 16/M01 A3011 RMK AO2 SLP122 T01611011 51003
KBPI - Big Piney, Wyoming, USA
Distance from station: NE 145mi, 234km
Updated: Wed, 21-Aug-2019 2:53am MDT
Clear
Clear
 Wind from NNW
Wind: NNW 6 mph , 9 km/h
Temperature: 46°F , 8°C
Wind Chill: 43°F , 6°C
Dew Point: 23°F , -5°C
Humidity: 40%
Barometer: 30.26 inHg , 1024.7 hPa
Clouds: Clear
Visibility: 10 miles , 16 km
2019/08/21 08:53 KBPI 210853Z AUTO 34005KT 10SM CLR 08/M05 A3026 RMK AO2 SLP144 T00831050 58001